Flight Track Log - Related Links

Times and Time Zones

All times are in EDT time to prevent confusion due to time zone crossing. See the DAL6231 flight status page for this flight to view local times or setup timezone preferences in your user account.

Time Position Orientation Groundspeed Altitude Reporting Facility
EDT Latitude Longitude Course Direction KTS MPH feet Rate Location/Type
Sat 06:33:20 PM 40.8000 -73.8833 346° North 155 178 1,200  Level New York TRACON
Sat 06:34:20 PM 40.8500 -73.9000 346° North 203 234 3,400 2,348 Climbing New York TRACON
Sat 06:36:24 PM 40.9722 -73.8558 15° North 231 266 8,400 2,112 Climbing Boston Center
Sat 06:37:36 PM 41.0233 -73.7661 53° Northeast 264 304 10,300 1,182 Climbing Boston Center
Sat 06:38:36 PM 41.0744 -73.6792 52° Northeast 316 364 11,000 350 Climbing Boston Center
Sat 06:39:36 PM 41.1217 -73.5394 66° East 323 372 11,000 200 Level Boston Center
Sat 06:40:36 PM 41.1828 -73.4550 46° Northeast 311 358 11,400 1,000 Climbing Boston Center
Sat 06:41:36 PM 41.2464 -73.3594 48° Northeast 325 374 13,000 1,700 Climbing Boston Center
Sat 06:42:36 PM 41.3139 -73.2525 50° Northeast 360 414 14,800 1,409 Climbing Boston Center
Sat 06:43:48 PM 41.3853 -73.1344 51° Northeast 393 452 16,100 1,364 Climbing Boston Center
Sat 06:44:48 PM 41.4633 -72.9608 59° Northeast 437 503 17,800 1,400 Climbing Boston Center
Sat 06:45:48 PM 41.5139 -72.8419 60° Northeast 454 522 18,900 1,500 Climbing Boston Center
Sat 06:46:48 PM 41.5936 -72.6567 60° Northeast 468 539 20,800 1,700 Climbing Boston Center
Sat 06:47:48 PM 41.6647 -72.4983 59° Northeast 479 551 22,300 1,438 Climbing Boston Center
Sat 06:48:49 PM 41.7375 -72.3400 58° Northeast 484 557 23,700 1,190 Climbing Boston Center
Sat 06:49:49 PM 41.8083 -72.1728 60° Northeast 495 570 24,700 908 Climbing Boston Center
Sat 06:50:48 PM 41.8869 -72.0022 58° Northeast 511 588 25,500 807 Climbing Boston Center
Sat 06:51:48 PM 41.9717 -71.8342 56° Northeast 528 608 26,300 800 Climbing Boston Center
Sat 06:52:48 PM 42.1042 -71.7239 32° Northeast 534 615 27,100 800 Climbing Boston Center
Sat 06:53:48 PM 42.2389 -71.6128 31° Northeast 551 634 27,900 650 Climbing Boston Center
Sat 06:54:48 PM 42.3717 -71.5100 30° Northeast 576 663 28,400 550 Climbing Boston Center
Sat 06:55:48 PM 42.5144 -71.3922 31° Northeast 589 678 29,000 650 Climbing Boston Center
Sat 06:56:48 PM 42.6611 -71.2683 32° Northeast 601 692 29,700 750 Climbing Boston Center
Sat 06:57:48 PM 42.8078 -71.1467 31° Northeast 606 697 30,500 850 Climbing Boston Center
Sat 06:58:48 PM 42.9522 -71.0217 32° Northeast 606 697 31,400 900 Climbing Boston Center
Sat 06:59:48 PM 43.0986 -70.8989 31° Northeast 611 703 32,300 950 Climbing Boston Center
Sat 07:00:48 PM 43.2406 -70.7756 32° Northeast 611 703 33,300 1,000 Climbing Boston Center
Sat 07:01:48 PM 43.3806 -70.6489 33° Northeast 605 696 34,300 1,000 Climbing Boston Center
Sat 07:02:48 PM 43.4881 -70.4797 49° Northeast 583 671 35,300 850 Climbing Boston Center
Sat 07:03:48 PM 43.5742 -70.2878 58° Northeast 577 664 36,000 750 Climbing Boston Center
Sat 07:04:48 PM 43.6661 -70.0808 58° Northeast 577 664 36,800 500 Climbing Boston Center
Sat 07:05:48 PM 43.7475 -69.8908 59° Northeast 572 658 37,000 100 Climbing Boston Center
Sat 07:06:48 PM 43.8347 -69.6969 58° Northeast 577 664 37,000  Level Boston Center
Sat 07:07:49 PM 43.9175 -69.5058 59° Northeast 577 664 37,000  Level Boston Center
Sat 07:08:48 PM 44.0042 -69.3111 58° Northeast 582 670 37,000  Level Boston Center
Sat 07:09:49 PM 44.0881 -69.1131 59° Northeast 587 676 37,000  Level Boston Center
Sat 07:10:48 PM 44.1719 -68.9172 59° Northeast 592 681 37,000  Level Boston Center
Sat 07:11:49 PM 44.2556 -68.7236 59° Northeast 592 681 37,000  Level Boston Center
Sat 07:12:48 PM 44.3233 -68.5656 59° Northeast 592 681 37,000  Level Boston Center
Sat 07:13:48 PM 44.4233 -68.3294 59° Northeast 592 681 37,000  Level Boston Center
Sat 07:14:48 PM 44.4981 -68.1494 60° Northeast 597 687 37,000  Level Boston Center
Sat 07:15:48 PM 44.5783 -67.9539 60° Northeast 590 679 37,000  Level Boston Center
Sat 07:16:48 PM 44.6600 -67.7581 60° Northeast 590 679 37,000  Level Boston Center
Sat 07:17:48 PM 44.7439 -67.5642 59° Northeast 585 673 37,000  Level Boston Center
Sat 07:18:47 PM 44.8167 -67.3500 64° Northeast 580 667 37,000  Level Moncton Center
Sat 07:19:47 PM 44.8667 -67.1500 71° East 570 656 37,000  Level Moncton Center
Sat 07:20:47 PM 44.9000 -66.9167 79° East 540 621 37,000  Level Moncton Center
Sat 07:21:47 PM 44.9000 -66.7333 90° East 530 610 37,000 -200 Level Moncton Center
Sat 07:22:47 PM 44.9000 -66.5167 90° East 530 610 36,600 -850 Descending Moncton Center
Sat 07:23:47 PM 44.9000 -66.3167 90° East 520 598 35,300 -1,500 Descending Moncton Center
Sat 07:24:47 PM 44.9167 -66.1000 84° East 520 598 33,600 -1,900 Descending Moncton Center
Sat 07:25:47 PM 44.9167 -65.9167 90° East 520 598 31,500 -2,100 Descending Moncton Center
Sat 07:26:47 PM 44.9167 -65.7167 90° East 520 598 29,400 -2,200 Descending Moncton Center
Sat 07:27:47 PM 44.9167 -65.5000 90° East 510 587 27,100 -2,200 Descending Moncton Center
Sat 07:28:47 PM 44.9167 -65.3167 90° East 500 575 25,000 -2,150 Descending Moncton Center
Sat 07:29:47 PM 44.9167 -65.1333 90° East 490 564 22,800 -2,150 Descending Moncton Center
Sat 07:30:47 PM 44.9167 -64.9333 90° East 470 541 20,700 -2,050 Descending Moncton Center
Sat 07:31:47 PM 44.9167 -64.7667 90° East 450 518 18,700 -2,150 Descending Moncton Center
Sat 07:32:47 PM 44.9167 -64.5833 90° East 440 506 16,400 -2,250 Descending Moncton Center
Sat 07:33:47 PM 44.9167 -64.4167 90° East 420 483 14,200 -2,150 Descending Moncton Center
Sat 07:34:47 PM 44.9167 -64.2500 90° East 410 472 12,100 -1,850 Descending Moncton Center
Sat 07:35:47 PM 44.9167 -64.1167 90° East 390 449 10,500 -1,300 Descending Moncton Center
Sat 07:36:47 PM 44.9333 -63.9667 81° East 350 403 9,500 -1,500 Descending Moncton Center
Sat 07:37:47 PM 44.9667 -63.8500 68° East 340 391 7,500 -1,600 Descending Moncton Center
Sat 07:38:47 PM 45.0000 -63.7333 68° East 330 380 6,300 -1,200 Descending Moncton Center
Sat 07:39:47 PM 45.0333 -63.6167 68° East 310 357 5,100 -650 Descending Moncton Center
Sat 07:40:47 PM 45.0667 -63.5000 68° East 300 345 5,000 -250 Descending Moncton Center
Sat 07:41:47 PM 45.0833 -63.4000 77° East 260 299 4,600 -800 Descending Moncton Center
Sat 07:42:47 PM 45.0833 -63.3333 90° East 230 265 3,400 -800 Descending Moncton Center
Sat 07:43:47 PM 45.0333 -63.3333 180° South 200 230 3,000 -200 Descending Moncton Center
Sat 07:44:47 PM 45.0000 -63.3833 227° Southwest 180 207 3,000 -100 Level Moncton Center
Sat 07:45:47 PM 44.9667 -63.4000 199° South 150 173 2,800 -500 Descending Moncton Center
Sat 07:46:47 PM 44.9333 -63.4333 215° Southwest 130 150 2,000 -750 Descending Moncton Center
Sat 07:47:47 PM 44.9000 -63.4500 200° South 130 150 1,300 -650 Descending Moncton Center
Sat 07:48:47 PM 44.8833 -63.4833 235° Southwest 130 150 700 -600 Descending Moncton Center

Login

Don't have an account? Register now (free) for customized features, flight alerts, and more!